FMEEFMEP

Guest
Details From FMEE - St Denis Gillot
To FMEP - ST PIERRE PIERREFONDS
Flight Number -
Tags generated
Created
Modified
Stats Distance 27 nm / 50 km
Max Altitude 100 ft / 30 m
Waypoints 3
Social Downloads 3
Likes 0
Share VATSIM

Download

Looking for another format? Having issues loading an existing format? Contact us
Advertisement - Login to hide

Notes

Basic altitude profile: - Ascent Rate: 2000ft/min - Ascent Speed: 230kts - Cruise Altitude: 3000ft - Cruise Speed: 245kts - Descent Rate: 2000ft/min - Descent Speed: 200kts Options: - Use NATs: yes - Use PACOTS: yes - Use low airways: yes - Use high airways: yes

Route

FMEE SDG FMEP

ID Type Via Altitude (ft/m) Position (lat/lon) Dist (leg/tot) Name
O FMEE APT - 0 / 0 -20.88931 / 55.51775 - / 0 nm St Denis Gillot
SDG VOR - 100 / 30 -20.88483 / 55.50981 0 / 0 nm ST DENIS GILLOT VOR-DME
O FMEP APT - 0 / 0 -21.32004 / 55.42358 26 / 27 nm ST PIERRE PIERREFONDS

Altitude Profile

Advertisement - Login to hide

FMEE

Details ICAO FMEE (RUN)
Name Roland Garros
Region Comoros, Mayotte, Réunion and Madagascar
Timezone Indian/Reunion (UTC+4.0)
Stats Elevation 64 ft / 20 m (AMSL)
Location -20.889300° 55.517800°
Runways 2
Magnetic Variation 18.954° W

METAR

FMEE 231000Z AUTO 09018KT 9999 BKN056/// 27/20 Q1020 TEMPO 09015G25KT

Decode

TAF

TAF FMEE 230500Z 2306/2412 09010KT 9999 FEW023 PROB40 TEMPO 2306/2314 09015G25KT

Decode

Departure Runways

ID Width Length Bearing (true/mag) Surface Threshold Overrun Markings Lighting
12 148 ft / 45 m 10,508 ft / 3,203 m 102.26° / 121.22° ASPHALT 397 ft / 121 m 0 ft / 0 m PREC-APP CENTERLINE EDGE THRESHOLD ALSF-I REIL-UNI
14 148 ft / 45 m 8,768 ft / 2,672 m 116.55° / 135.50° ASPHALT 328 ft / 100 m 0 ft / 0 m PREC-APP CENTERLINE EDGE THRESHOLD ALSF-I REIL-UNI
30 148 ft / 45 m 10,508 ft / 3,203 m 282.25° / 301.21° ASPHALT 0 ft / 0 m 0 ft / 0 m PREC-APP CENTERLINE EDGE THRESHOLD ALSF-I REIL-UNI
32 148 ft / 45 m 8,768 ft / 2,672 m 296.54° / 315.49° ASPHALT 1,175 ft / 358 m 0 ft / 0 m PREC-APP CENTERLINE EDGE THRESHOLD ALSF-I REIL-UNI

FMEP

Details ICAO FMEP (ZSE)
Name ST PIERRE PIERREFONDS
Region Comoros, Mayotte, Réunion and Madagascar
Timezone Unknown
Stats Elevation 56 ft / 17 m (AMSL)
Location -21.319400° 55.422600°
Runways 1
Magnetic Variation 19.504° W

METAR

FMEP 231000Z AUTO 20003KT 150V240 9999 OVC054 25/17 Q1020 NOSIG

Decode

TAF

Not found

Destination Runways

ID Width Length Bearing (true/mag) Surface Threshold Overrun Markings Lighting
15 133 ft / 41 m 6,900 ft / 2,103 m 129.13° / 148.63° ASPHALT 0 ft / 0 m 0 ft / 0 m APP
33 133 ft / 41 m 6,900 ft / 2,103 m 309.12° / 328.63° ASPHALT 0 ft / 0 m 0 ft / 0 m APP

Popular Alternatives